Airfield :
LOGIN :

Register | Disclaimer

   EN    FR    IT 

 










Legend :    VFR   Marginal VFR   IFR   Intensive IFR   Very Intensive IFR
Visi :
Ceiling :
>= 8 km
>= 3000ft
5 to 8 km
1000 to 3000 ft
1500m to 5 km
500 to 1000 ft
800 to 1500m
200 to 500 ft
< 800m
< 200 ft
Symbols :   Thunderstorms  Fog  Heavy snow  Heavy precipitations  Wind > 20 kt
SIGMETs :     Misc.  Thunderstorms  Icing  Turbulence  Mountain Waves  Volcanic Ashes






- Airport Elevation : 401 ft
- IATA code : LEQ


EGHC - Land's End

CURRENT METAR :
  • 111150Z 36012KT 1500 VCFG FEW000 19/18 Q1016

EXPIRED METARs :
  • 111120Z 36011KT 2000 VCFG FEW000 20/19 Q1015
  • 111050Z 01008KT 330V040 2000 VCFG FEW000 20/20 Q1015
  • 111020Z 36008KT 310V040 2000 VCFG FEW000 19/19 Q1015
  • 110950Z 01007KT 2000 BR FEW000 19/19 Q1015
  • 110920Z 02006KT 2000 BR FEW000 18/18 Q1015
  • 110850Z 03009KT 0350 FG BKN000 17/17 Q1015

TAF TAF EGHC
Valid from the 11 at 12:00 until the 11 at 16:00 UTC


111102Z 1112/1116 36008KT 2000 BR FEW003 SCT025
BECMG 1112/1115 7000
TEMPO 1112/1116 9999 NSW



MET'MAP, your aeronautical weather chart ! - Copyright ORBIFLY December 2007 - Disclaimer

ORBIFLY MET'MAP TEAM :

Programming & Development : Alexandra Zaïnal
Concept & original design : Baudouin d'Aumeries
Assistance for programming : Marc-Olivier Méhu
Technical & hardware support : Manuel Goepfert

Contact : metmap@orbifly.com




SOURCES & CREDITS :

   NOAA